createdAt,value
2017-11-30T00:00:03.221Z,22.65
2017-11-30T00:02:32.929Z,25.55
2017-11-30T00:05:02.959Z,30.05
2017-11-30T00:07:32.202Z,22.42
2017-11-30T00:10:01.518Z,30.20
2017-11-30T00:12:30.810Z,24.37
2017-11-30T00:15:02.541Z,26.73
2017-11-30T00:17:31.949Z,29.48
2017-11-30T00:20:01.264Z,25.20
2017-11-30T00:22:30.496Z,34.58
2017-11-30T00:24:59.750Z,27.20
2017-11-30T00:27:29.029Z,29.33
2017-11-30T00:29:58.274Z,33.63
2017-11-30T00:32:27.537Z,35.65
2017-11-30T00:34:56.786Z,29.25
2017-11-30T00:37:26.043Z,27.15
2017-11-30T00:39:55.313Z,31.12
2017-11-30T00:42:43.022Z,29.40
2017-11-30T00:45:12.281Z,26.52
2017-11-30T00:47:41.534Z,25.77
2017-11-30T00:50:10.786Z,28.25
2017-11-30T00:52:40.065Z,27.60
2017-11-30T00:55:09.333Z,26.60
2017-11-30T00:57:38.565Z,23.00
2017-11-30T01:00:08.585Z,26.90
2017-11-30T01:02:38.589Z,31.10
2017-11-30T01:05:08.620Z,30.73
2017-11-30T01:07:37.870Z,28.45
2017-11-30T01:10:07.122Z,23.83
2017-11-30T01:12:36.375Z,24.08
2017-11-30T01:15:05.641Z,22.45
2017-11-30T01:17:34.897Z,23.98
2017-11-30T01:20:04.177Z,25.95
2017-11-30T01:22:34.217Z,25.83
2017-11-30T01:25:04.230Z,29.12
2017-11-30T01:27:34.281Z,25.10
2017-11-30T01:30:03.525Z,23.02
2017-11-30T01:32:32.762Z,22.92
2017-11-30T01:35:02.816Z,23.75
2017-11-30T01:37:32.081Z,22.35
2017-11-30T01:40:02.148Z,22.98
2017-11-30T01:42:31.420Z,16.05
2017-11-30T01:45:01.441Z,27.23
2017-11-30T01:47:30.864Z,18.33
2017-11-30T01:50:00.105Z,18.05
2017-11-30T01:52:30.176Z,17.75
2017-11-30T01:54:59.459Z,22.92
2017-11-30T01:57:28.716Z,21.42
2017-11-30T01:59:58.032Z,21.08
2017-11-30T02:02:27.302Z,19.83
2017-11-30T02:04:57.350Z,23.48
2017-11-30T02:07:27.356Z,16.67
2017-11-30T02:09:56.622Z,15.45
2017-11-30T02:12:25.890Z,16.23
2017-11-30T02:14:55.136Z,15.95
2017-11-30T02:17:25.168Z,13.25
2017-11-30T02:19:55.184Z,12.95
2017-11-30T02:22:25.220Z,11.82
2017-11-30T02:24:54.476Z,14.20
2017-11-30T02:27:23.751Z,10.30
2017-11-30T02:29:53.013Z,9.45
2017-11-30T02:32:23.030Z,10.32
2017-11-30T02:34:52.276Z,12.52
2017-11-30T02:37:21.522Z,14.93
2017-11-30T02:39:51.559Z,12.35
2017-11-30T02:42:20.813Z,11.65
2017-11-30T02:44:50.085Z,15.15
2017-11-30T02:47:19.347Z,9.15
2017-11-30T02:49:48.626Z,11.40
2017-11-30T02:52:17.913Z,13.20
2017-11-30T02:54:47.156Z,11.90
2017-11-30T02:57:16.411Z,9.00
2017-11-30T02:59:45.666Z,12.27
2017-11-30T03:02:14.993Z,14.63
2017-11-30T03:04:44.247Z,13.32
2017-11-30T03:07:14.257Z,10.80
2017-11-30T03:09:43.536Z,15.13
2017-11-30T03:12:12.804Z,14.38
2017-11-30T03:14:42.078Z,11.00
2017-11-30T03:17:11.326Z,14.40
2017-11-30T03:19:40.607Z,15.52
2017-11-30T03:22:09.855Z,10.20
2017-11-30T03:24:39.870Z,11.65
2017-11-30T03:27:09.893Z,11.60
2017-11-30T03:29:39.161Z,10.40
2017-11-30T03:32:08.431Z,12.50
2017-11-30T03:34:37.724Z,10.75
2017-11-30T03:37:06.973Z,11.25
2017-11-30T03:39:36.218Z,9.57
2017-11-30T03:42:05.480Z,10.07
2017-11-30T03:44:35.518Z,13.38
2017-11-30T03:47:05.563Z,11.05
2017-11-30T03:49:34.798Z,11.68
2017-11-30T03:52:04.044Z,10.00
2017-11-30T03:54:33.301Z,13.48
2017-11-30T03:57:02.533Z,9.35
2017-11-30T03:59:32.583Z,10.00
2017-11-30T04:02:01.845Z,11.77
2017-11-30T04:04:31.092Z,10.35
2017-11-30T04:07:00.362Z,10.07
2017-11-30T04:09:30.353Z,9.27
2017-11-30T04:11:59.606Z,9.07
2017-11-30T04:14:28.888Z,11.32
2017-11-30T04:16:58.121Z,9.35
2017-11-30T04:19:27.365Z,8.38
2017-11-30T04:21:57.411Z,13.65
2017-11-30T04:24:26.677Z,14.52
2017-11-30T04:26:55.951Z,8.55
2017-11-30T04:29:25.211Z,11.50
2017-11-30T04:31:54.443Z,11.52
2017-11-30T04:34:23.730Z,13.45
2017-11-30T04:36:52.971Z,11.82
2017-11-30T04:39:22.233Z,9.90
2017-11-30T04:41:51.518Z,13.38
2017-11-30T04:44:20.771Z,19.40
2017-11-30T04:46:50.027Z,11.77
2017-11-30T04:49:21.288Z,15.90
2017-11-30T04:51:51.245Z,13.57
2017-11-30T04:54:21.301Z,11.70
2017-11-30T04:56:50.636Z,12.95
2017-11-30T04:59:19.923Z,11.48
2017-11-30T05:01:49.203Z,10.02
2017-11-30T05:04:18.438Z,10.30
2017-11-30T05:06:47.706Z,9.90
2017-11-30T05:09:16.972Z,10.18
2017-11-30T05:11:46.990Z,9.65
2017-11-30T05:14:17.003Z,7.95
2017-11-30T05:16:46.246Z,10.38
2017-11-30T05:19:15.477Z,8.45
2017-11-30T05:21:44.733Z,15.40
2017-11-30T05:24:14.025Z,7.12
2017-11-30T05:26:43.278Z,11.07
2017-11-30T05:29:12.533Z,8.40
2017-11-30T05:31:41.813Z,10.63
2017-11-30T05:34:11.054Z,15.15
2017-11-30T05:36:40.351Z,19.08
2017-11-30T05:39:09.627Z,9.32
2017-11-30T05:41:38.885Z,9.48
2017-11-30T05:44:08.117Z,7.65
2017-11-30T05:46:37.371Z,7.95
2017-11-30T05:49:06.610Z,8.00
2017-11-30T05:51:36.648Z,7.82
2017-11-30T05:54:06.657Z,9.32
2017-11-30T05:56:36.691Z,9.98
2017-11-30T05:59:05.922Z,10.00
2017-11-30T06:01:35.216Z,10.98
2017-11-30T06:04:04.494Z,11.27
2017-11-30T06:06:33.741Z,10.27
2017-11-30T06:09:02.988Z,11.57
2017-11-30T06:11:32.245Z,10.15
2017-11-30T06:14:01.492Z,17.85
2017-11-30T06:16:30.748Z,10.45
2017-11-30T06:19:00.021Z,9.30
2017-11-30T06:21:29.432Z,8.35
2017-11-30T06:23:58.687Z,11.90
2017-11-30T06:26:27.947Z,11.02
2017-11-30T06:28:57.239Z,9.88
2017-11-30T06:31:26.580Z,9.77
2017-11-30T06:33:55.818Z,9.13
2017-11-30T06:36:25.085Z,7.62
2017-11-30T06:38:54.360Z,7.57
2017-11-30T06:41:23.584Z,9.27
2017-11-30T06:43:52.833Z,8.10
2017-11-30T06:46:22.091Z,8.02
2017-11-30T06:48:51.334Z,9.38
2017-11-30T06:51:20.595Z,11.45
2017-11-30T06:53:49.844Z,11.45
2017-11-30T06:56:19.640Z,8.85
2017-11-30T06:58:50.377Z,13.85
2017-11-30T07:01:19.910Z,8.80
2017-11-30T07:03:49.154Z,9.23
2017-11-30T07:06:18.406Z,13.30
2017-11-30T07:08:48.448Z,8.77
2017-11-30T07:11:18.464Z,8.25
2017-11-30T07:13:47.721Z,7.12
2017-11-30T07:16:18.100Z,8.57
2017-11-30T07:18:49.418Z,6.60
2017-11-30T07:21:18.710Z,6.20
2017-11-30T07:23:47.975Z,7.93
2017-11-30T07:26:17.255Z,10.70
2017-11-30T07:28:46.538Z,7.05
2017-11-30T07:31:15.757Z,7.18
2017-11-30T07:33:45.013Z,7.10
2017-11-30T07:36:14.269Z,8.18
2017-11-30T07:38:43.526Z,10.20
2017-11-30T07:41:13.543Z,10.07
2017-11-30T07:43:42.799Z,6.37
2017-11-30T07:46:12.118Z,8.30
2017-11-30T07:48:41.361Z,8.70
2017-11-30T07:51:10.615Z,9.02
2017-11-30T07:53:39.872Z,11.12
2017-11-30T07:56:09.122Z,10.23
2017-11-30T07:58:38.379Z,10.43
2017-11-30T08:01:07.641Z,9.52
2017-11-30T08:03:36.884Z,8.85
2017-11-30T08:06:06.132Z,10.43
2017-11-30T08:08:35.392Z,7.35
2017-11-30T08:11:04.645Z,9.40
2017-11-30T08:13:34.659Z,11.50
2017-11-30T08:16:03.909Z,9.88
2017-11-30T08:18:33.171Z,12.70
2017-11-30T08:21:02.498Z,9.95
2017-11-30T08:23:31.757Z,8.98
2017-11-30T08:26:01.785Z,7.10
2017-11-30T08:28:31.075Z,8.98
2017-11-30T08:31:00.327Z,8.40
2017-11-30T08:33:29.553Z,8.23
2017-11-30T08:35:58.829Z,11.07
2017-11-30T08:38:28.071Z,9.20
2017-11-30T08:40:58.095Z,9.32
2017-11-30T08:43:28.165Z,14.73
2017-11-30T08:45:57.405Z,8.63
2017-11-30T08:48:26.680Z,8.10
2017-11-30T08:50:55.931Z,11.90
2017-11-30T08:53:25.210Z,7.78
2017-11-30T08:55:54.568Z,8.48
2017-11-30T08:58:23.837Z,9.85
2017-11-30T09:00:53.095Z,7.75
2017-11-30T09:03:22.336Z,7.78
2017-11-30T09:05:51.596Z,13.68
2017-11-30T09:08:20.848Z,6.40
2017-11-30T09:10:50.113Z,7.57
2017-11-30T09:13:20.108Z,8.32
2017-11-30T09:15:49.367Z,8.32
2017-11-30T09:18:18.635Z,6.10
2017-11-30T09:20:48.631Z,8.35
2017-11-30T09:23:17.906Z,4.78
2017-11-30T09:25:47.185Z,4.70
2017-11-30T09:28:16.432Z,5.90
2017-11-30T09:30:45.680Z,5.35
2017-11-30T09:33:14.940Z,6.90
2017-11-30T09:35:44.195Z,6.37
2017-11-30T09:38:13.463Z,6.43
2017-11-30T09:40:43.468Z,4.90
2017-11-30T09:43:12.718Z,5.50
2017-11-30T09:45:42.003Z,5.43
2017-11-30T09:48:11.251Z,10.27
2017-11-30T09:50:40.515Z,5.85
2017-11-30T09:53:10.547Z,4.57
2017-11-30T09:55:39.807Z,5.93
2017-11-30T09:58:09.850Z,5.28
2017-11-30T10:00:39.085Z,7.10
2017-11-30T10:03:08.334Z,5.50
2017-11-30T10:05:38.380Z,5.40
2017-11-30T10:08:07.619Z,5.35
2017-11-30T10:10:37.655Z,6.70
2017-11-30T10:13:07.663Z,7.72
2017-11-30T10:15:37.707Z,7.10
2017-11-30T10:18:06.955Z,6.95
2017-11-30T10:20:36.219Z,10.63
2017-11-30T10:23:05.454Z,5.25
2017-11-30T10:25:34.703Z,4.28
2017-11-30T10:28:03.933Z,4.85
2017-11-30T10:30:33.204Z,5.72
2017-11-30T10:33:02.487Z,5.60
2017-11-30T10:35:31.703Z,6.60
2017-11-30T10:38:00.976Z,4.45
2017-11-30T10:40:30.206Z,6.00
2017-11-30T10:42:59.438Z,5.03
2017-11-30T10:45:28.717Z,4.82
2017-11-30T10:47:57.967Z,4.50
2017-11-30T10:50:27.289Z,5.72
2017-11-30T10:52:56.529Z,4.65
2017-11-30T10:55:25.759Z,4.18
2017-11-30T10:57:55.012Z,4.82
2017-11-30T11:00:24.262Z,4.60
2017-11-30T11:02:53.501Z,4.60
2017-11-30T11:05:22.842Z,4.35
2017-11-30T11:07:52.084Z,3.55
2017-11-30T11:10:21.326Z,5.85
2017-11-30T11:12:50.582Z,3.60
2017-11-30T11:15:20.597Z,5.37
2017-11-30T11:17:50.639Z,4.07
2017-11-30T11:20:19.873Z,4.10
2017-11-30T11:22:49.159Z,5.03
2017-11-30T11:25:18.456Z,5.97
2017-11-30T11:27:47.684Z,5.95
2017-11-30T11:30:16.927Z,5.97
2017-11-30T11:32:46.174Z,6.82
2017-11-30T11:35:15.423Z,7.90
2017-11-30T11:37:44.687Z,6.28
2017-11-30T11:40:13.931Z,8.75
2017-11-30T11:42:43.179Z,9.90
2017-11-30T11:45:12.429Z,8.60
2017-11-30T11:47:41.679Z,8.13
2017-11-30T11:50:11.746Z,8.73
2017-11-30T11:52:41.003Z,7.40
2017-11-30T11:55:10.264Z,11.93
2017-11-30T11:57:39.590Z,7.55
2017-11-30T12:00:08.841Z,9.82
2017-11-30T12:02:38.119Z,10.02
2017-11-30T12:05:07.405Z,9.13
2017-11-30T12:07:36.663Z,10.85
2017-11-30T12:10:05.943Z,9.38
2017-11-30T12:12:35.941Z,11.12
2017-11-30T12:15:06.098Z,9.63
2017-11-30T12:17:35.406Z,7.45
2017-11-30T12:20:04.661Z,11.55
2017-11-30T12:22:35.104Z,10.90
2017-11-30T12:25:05.102Z,11.75
2017-11-30T12:27:35.184Z,9.10
2017-11-30T12:30:04.421Z,10.30
2017-11-30T12:32:33.666Z,12.82
2017-11-30T12:35:02.974Z,8.65
2017-11-30T12:37:32.183Z,8.40
2017-11-30T12:40:01.434Z,10.20
2017-11-30T12:42:31.433Z,7.57
2017-11-30T12:45:00.693Z,11.43
2017-11-30T12:47:29.951Z,7.35
2017-11-30T12:49:59.947Z,9.00
2017-11-30T12:52:29.205Z,9.55
2017-11-30T12:54:58.468Z,6.70
2017-11-30T12:57:28.483Z,7.22
2017-11-30T12:59:58.506Z,11.00
2017-11-30T13:02:28.504Z,7.97
2017-11-30T13:04:57.766Z,9.10
2017-11-30T13:07:27.013Z,8.68
2017-11-30T13:09:57.003Z,6.97
2017-11-30T13:12:26.263Z,9.25
2017-11-30T13:14:55.507Z,6.47
2017-11-30T13:17:24.762Z,8.85
2017-11-30T13:19:54.001Z,8.13
2017-11-30T13:22:23.308Z,8.40
2017-11-30T13:24:52.545Z,8.70
2017-11-30T13:27:21.796Z,9.75
2017-11-30T13:29:51.043Z,7.12
2017-11-30T13:32:21.067Z,8.00
2017-11-30T13:34:50.358Z,10.20
2017-11-30T13:37:20.353Z,9.63
2017-11-30T13:39:50.420Z,10.90
2017-11-30T13:42:20.444Z,8.20
2017-11-30T13:44:49.672Z,9.38
2017-11-30T13:47:18.943Z,10.10
2017-11-30T13:49:48.187Z,6.45
2017-11-30T13:52:17.427Z,16.40
2017-11-30T13:54:46.673Z,9.10
2017-11-30T13:57:15.930Z,9.55
2017-11-30T13:59:45.178Z,6.68
2017-11-30T14:02:14.431Z,8.27
2017-11-30T14:04:43.718Z,7.22
2017-11-30T14:07:12.934Z,6.00
2017-11-30T14:09:42.160Z,9.25
2017-11-30T14:12:11.407Z,9.10
2017-11-30T14:14:40.647Z,8.25
2017-11-30T14:17:09.872Z,8.77
2017-11-30T14:19:39.132Z,7.05
2017-11-30T14:22:08.359Z,8.30
2017-11-30T14:24:37.596Z,8.18
2017-11-30T14:27:07.615Z,7.47
2017-11-30T14:29:37.633Z,11.80
2017-11-30T14:32:07.648Z,7.45
2017-11-30T14:34:37.669Z,6.95
2017-11-30T14:37:07.689Z,10.10
2017-11-30T14:39:37.696Z,9.20
2017-11-30T14:42:12.122Z,7.00
2017-11-30T14:44:42.139Z,7.60
2017-11-30T14:47:12.311Z,10.15
2017-11-30T14:49:41.544Z,8.20
2017-11-30T14:52:10.779Z,7.65
2017-11-30T14:54:40.404Z,7.78
2017-11-30T14:57:10.560Z,9.20
2017-11-30T14:59:39.803Z,8.63
2017-11-30T15:02:09.833Z,12.07
2017-11-30T15:04:39.088Z,7.75
2017-11-30T15:07:08.313Z,7.95
2017-11-30T15:09:38.327Z,8.00
2017-11-30T15:12:08.367Z,7.25
2017-11-30T15:14:38.364Z,7.12
2017-11-30T15:17:08.363Z,8.65
2017-11-30T15:19:37.640Z,9.18
2017-11-30T15:22:09.051Z,6.35
2017-11-30T15:24:38.297Z,5.75
2017-11-30T15:27:07.557Z,10.45
2017-11-30T15:29:36.794Z,5.53
2017-11-30T15:32:06.042Z,5.95
2017-11-30T15:34:36.164Z,8.45
2017-11-30T15:37:05.431Z,10.18
2017-11-30T15:39:34.659Z,6.55
2017-11-30T15:42:03.917Z,5.90
2017-11-30T15:44:33.171Z,11.48
2017-11-30T15:47:02.431Z,13.00
2017-11-30T15:49:31.669Z,11.82
2017-11-30T15:52:00.927Z,10.82
2017-11-30T15:54:30.184Z,12.35
2017-11-30T15:56:59.425Z,10.85
2017-11-30T15:59:28.686Z,12.68
2017-11-30T16:01:57.950Z,10.18
2017-11-30T16:04:27.996Z,13.25
2017-11-30T16:06:57.264Z,7.55
2017-11-30T16:09:27.287Z,20.12
2017-11-30T16:11:57.308Z,10.63
2017-11-30T16:14:27.355Z,11.23
2017-11-30T16:16:57.375Z,8.70
2017-11-30T16:19:27.541Z,6.50
2017-11-30T16:21:58.710Z,7.45
2017-11-30T16:24:28.330Z,5.57
2017-11-30T16:26:58.357Z,7.82
2017-11-30T16:29:27.601Z,8.52
2017-11-30T16:31:56.843Z,6.25
2017-11-30T16:34:26.148Z,8.80
2017-11-30T16:36:56.140Z,7.70
2017-11-30T16:39:26.157Z,8.55
2017-11-30T16:41:55.432Z,8.35
2017-11-30T16:44:24.668Z,9.25
2017-11-30T16:46:53.896Z,11.02
2017-11-30T16:49:23.147Z,7.32
2017-11-30T16:51:52.391Z,7.10
2017-11-30T16:54:21.644Z,9.52
2017-11-30T16:56:50.915Z,9.05
2017-11-30T16:59:20.135Z,7.95
2017-11-30T17:01:49.360Z,7.78
2017-11-30T17:04:19.354Z,7.00
2017-11-30T17:06:48.589Z,6.80
2017-11-30T17:09:18.601Z,10.07
2017-11-30T17:11:48.607Z,7.37
2017-11-30T17:14:17.854Z,6.00
2017-11-30T17:16:47.084Z,8.07
2017-11-30T17:19:16.325Z,6.78
2017-11-30T17:21:45.602Z,7.90
2017-11-30T17:24:14.827Z,7.40
2017-11-30T17:26:44.827Z,6.80
2017-11-30T17:29:14.844Z,6.85
2017-11-30T17:31:44.878Z,6.55
2017-11-30T17:34:14.892Z,6.50
2017-11-30T17:36:44.900Z,6.50
2017-11-30T17:39:14.921Z,8.50
2017-11-30T17:41:44.933Z,8.13
2017-11-30T17:44:14.941Z,8.93
2017-11-30T17:46:44.194Z,6.93
2017-11-30T17:49:13.425Z,5.60
2017-11-30T17:51:42.647Z,7.25
2017-11-30T17:54:12.680Z,7.53
2017-11-30T17:56:41.939Z,6.20
2017-11-30T17:59:11.192Z,9.45
2017-11-30T18:01:40.445Z,6.25
2017-11-30T18:04:09.682Z,7.28
2017-11-30T18:06:38.947Z,7.60
2017-11-30T18:09:08.192Z,7.65
2017-11-30T18:11:37.426Z,8.70
2017-11-30T18:14:06.668Z,7.05
2017-11-30T18:16:35.901Z,10.90
2017-11-30T18:19:05.168Z,10.43
2017-11-30T18:21:35.183Z,10.80
2017-11-30T18:24:04.505Z,7.55
2017-11-30T18:26:33.670Z,8.05
2017-11-30T18:29:02.916Z,9.77
2017-11-30T18:31:32.204Z,8.40
2017-11-30T18:34:01.448Z,9.90
2017-11-30T18:36:30.702Z,9.05
2017-11-30T18:38:59.951Z,8.85
2017-11-30T18:41:29.186Z,11.43
2017-11-30T18:43:59.205Z,8.93
2017-11-30T18:46:29.219Z,9.80
2017-11-30T18:48:59.217Z,9.63
2017-11-30T18:51:28.477Z,8.65
2017-11-30T18:53:57.691Z,8.38
2017-11-30T18:56:26.993Z,7.45
2017-11-30T18:58:56.229Z,10.48
2017-11-30T19:01:26.253Z,13.07
2017-11-30T19:03:55.497Z,8.75
2017-11-30T19:06:24.723Z,6.87
2017-11-30T19:08:53.981Z,15.13
2017-11-30T19:11:23.321Z,8.55
2017-11-30T19:13:52.525Z,7.40
2017-11-30T19:16:21.773Z,8.48
2017-11-30T19:18:51.042Z,9.45
2017-11-30T19:21:20.303Z,8.82
2017-11-30T19:23:49.543Z,8.30
2017-11-30T19:26:18.800Z,10.43
2017-11-30T19:28:48.033Z,9.15
2017-11-30T19:31:17.272Z,9.68
2017-11-30T19:33:46.512Z,7.55
2017-11-30T19:36:15.754Z,10.48
2017-11-30T19:38:45.778Z,8.82
2017-11-30T19:41:15.024Z,6.47
2017-11-30T19:43:44.266Z,7.45
2017-11-30T19:46:13.519Z,8.27
2017-11-30T19:48:42.743Z,6.60
2017-11-30T19:51:11.999Z,9.02
2017-11-30T19:53:41.254Z,7.45
2017-11-30T19:56:10.506Z,4.90
2017-11-30T19:58:39.769Z,8.73
2017-11-30T20:01:09.790Z,7.82
2017-11-30T20:03:39.814Z,15.82
2017-11-30T20:06:09.053Z,6.15
2017-11-30T20:08:38.297Z,7.68
2017-11-30T20:11:07.561Z,8.10
2017-11-30T20:13:36.810Z,7.60
2017-11-30T20:16:06.812Z,8.73
2017-11-30T20:18:36.825Z,9.82
2017-11-30T20:21:06.091Z,6.78
2017-11-30T20:23:35.325Z,7.60
2017-11-30T20:26:04.558Z,10.65
2017-11-30T20:28:33.825Z,9.85
2017-11-30T20:31:03.077Z,6.62
2017-11-30T20:33:32.308Z,11.10
2017-11-30T20:36:01.578Z,9.70
2017-11-30T20:38:30.826Z,8.43
2017-11-30T20:41:00.070Z,10.73
2017-11-30T20:43:30.083Z,13.00
2017-11-30T20:45:59.325Z,8.38
2017-11-30T20:48:28.606Z,10.50
2017-11-30T20:50:57.840Z,8.70
2017-11-30T20:53:27.105Z,14.05
2017-11-30T20:55:56.341Z,19.30
2017-11-30T20:58:25.612Z,23.12
2017-11-30T21:00:54.922Z,20.42
2017-11-30T21:03:24.194Z,19.42
2017-11-30T21:05:53.449Z,21.73
2017-11-30T21:08:23.475Z,20.25
2017-11-30T21:10:52.750Z,15.77
2017-11-30T21:13:22.011Z,22.02
2017-11-30T21:15:51.273Z,14.80
2017-11-30T21:18:21.286Z,9.88
2017-11-30T21:20:50.531Z,9.70
2017-11-30T21:23:19.773Z,11.50
2017-11-30T21:25:49.100Z,7.93
2017-11-30T21:28:19.122Z,9.50
2017-11-30T21:30:49.125Z,9.15
2017-11-30T21:33:19.127Z,8.98
2017-11-30T21:35:48.374Z,9.40
2017-11-30T21:38:17.629Z,9.35
2017-11-30T21:40:47.653Z,10.25
2017-11-30T21:43:16.914Z,11.57
2017-11-30T21:45:46.152Z,11.85
2017-11-30T21:48:15.471Z,8.63
2017-11-30T21:50:44.715Z,10.60
2017-11-30T21:53:13.951Z,9.10
2017-11-30T21:55:43.195Z,11.07
2017-11-30T21:58:12.435Z,9.93
2017-11-30T22:00:41.714Z,9.70
2017-11-30T22:03:10.941Z,15.90
2017-11-30T22:05:40.191Z,9.98
2017-11-30T22:08:09.444Z,10.48
2017-11-30T22:10:38.681Z,7.72
2017-11-30T22:13:08.697Z,9.93
2017-11-30T22:15:38.709Z,8.57
2017-11-30T22:18:07.941Z,9.18
2017-11-30T22:20:37.195Z,11.48
2017-11-30T22:23:06.444Z,9.05
2017-11-30T22:25:36.439Z,11.30
2017-11-30T22:28:05.724Z,13.32
2017-11-30T22:30:35.741Z,11.32
2017-11-30T22:33:05.747Z,8.68
2017-11-30T22:35:34.999Z,9.00
2017-11-30T22:38:04.223Z,10.23
2017-11-30T22:40:33.465Z,11.63
2017-11-30T22:43:03.494Z,9.05
2017-11-30T22:45:32.723Z,11.30
2017-11-30T22:48:01.972Z,11.90
2017-11-30T22:50:31.988Z,9.43
2017-11-30T22:53:01.991Z,11.02
2017-11-30T22:55:31.265Z,10.75
2017-11-30T22:58:00.511Z,8.80
2017-11-30T23:00:42.306Z,10.43
2017-11-30T23:03:12.310Z,8.98
2017-11-30T23:05:41.540Z,9.55
2017-11-30T23:08:10.794Z,7.85
2017-11-30T23:10:40.046Z,10.60
2017-11-30T23:13:09.286Z,8.38
2017-11-30T23:15:38.543Z,10.43
2017-11-30T23:18:08.614Z,10.25
2017-11-30T23:20:37.881Z,13.25
2017-11-30T23:23:07.111Z,9.70
2017-11-30T23:25:36.345Z,11.45
2017-11-30T23:28:06.354Z,11.00
2017-11-30T23:30:36.364Z,9.15
2017-11-30T23:33:05.633Z,11.35
2017-11-30T23:35:34.882Z,13.95
2017-11-30T23:38:04.899Z,14.27
2017-11-30T23:40:34.914Z,12.57
2017-11-30T23:43:04.169Z,10.98
2017-11-30T23:45:33.418Z,9.70
2017-11-30T23:48:03.447Z,10.85
2017-11-30T23:50:32.680Z,14.40
2017-11-30T23:53:01.931Z,10.68
2017-11-30T23:55:31.959Z,8.65
2017-11-30T23:58:01.967Z,13.15
